< < Back
Terminal Aerodrome Forecast


Current Version              Previous Versions:   1  2  3  4  5  6  7  8  9  

Terminal Aerodrome Forecast

411
FTUS42 KFFC 302225 AAA
TAFAHN
TAF AMD
KAHN 302225Z 3022/0118 16005KT P6SM SCT040
      TEMPO 3022/3024 VRB10KT 5SM TSRA BR BKN035CB
     FM010000 19003KT P6SM SCT100 BKN250
     FM010600 20002KT P6SM OVC025
     FM011000 00000KT 4SM BR OVC008
     FM011400 24004KT 6SM HZ SCT030=

Latest METAR

439
SAUS70 KWBC 302200 RRX
MTRAHN
METAR KAHN 302251Z 28007KT 5SM +TSRA BR FEW040 BKN050 OVC070 23/22 A2999
RMK AO2 LTG DSNT SW RAB00 TSB07 SLP149 P0032 T02280222


USA.gov is the U.S. government's official web portal to all federal, state and local government web resources and services.